»·PEaware :: DCM424 KLGF-KSAN

DCM424 :: KLGF-KSAN

FLIGHT INFORMATION

Flight Status: Arrived
Operator: DotCom
More flights by this operator :: More flights under this callsign
Pilot: Ben H. (9170)
Aircraft: BEECH AIRCRAFT SUPER KING AIR COMMUTER
(BE20)
More flights by this aircraft type
Origin: KLGF Laguna AAF
United States
Destination: KSAN San Diego Intl-Lindbergh
United States
More flights between these airports :: More routes between these airports
Route: IPL LUCKI1
File this flight plan on PilotEdge
Remarks:
Altitude:
(Current/Filed)
22,000ft
Speed:
(Current/Filed)
250kts
Departed: 04-May-19 07:27 PM
Arrived: 04-May-19 08:15 PM
Distance/Time
Traveled:
140nm/0:48
Distance/Time
To Go:
Arrived

Flight Plot

Page will automatically refresh every two minutes.

Flight plan parsing failed; only flown route is shown


Map Options




Map Legend


Flown Route
Filed Route
Departure Airport
Arrival Airport
Navaid (VOR, NDB)
Fix

Horizontal Profiles

Position Reports

Time Latitude Longitude Heading Altitude Ground
Speed
04-May-19 19:15 32.865846 -114.396888 101 424ft 0kts
04-May-19 19:16 32.865846 -114.396888 101 424ft 0kts
04-May-19 19:18 32.865846 -114.396888 101 424ft 0kts
04-May-19 19:18 32.865846 -114.396888 101 424ft 0kts
04-May-19 19:19 32.865846 -114.396888 101 424ft 0kts
04-May-19 19:21 32.865846 -114.396888 101 424ft 0kts
04-May-19 19:21 32.865842 -114.396863 102 424ft 1kts
04-May-19 19:22 32.865238 -114.396532 191 425ft 4kts
04-May-19 19:23 32.863049 -114.397047 191 425ft 10kts
04-May-19 19:24 32.862010 -114.396688 90 425ft 0kts
04-May-19 19:25 32.862010 -114.396688 90 425ft 0kts
04-May-19 19:26 32.865977 -114.394975 10 425ft 92kts
04-May-19 19:27 32.895785 -114.395416 273 1652ft 110kts
04-May-19 19:28 32.872462 -114.425263 219 2548ft 140kts
04-May-19 19:29 32.854104 -114.467380 257 3370ft 151kts
04-May-19 19:30 32.848410 -114.518488 261 4182ft 159kts
04-May-19 19:31 32.842882 -114.574659 262 4977ft 191kts
04-May-19 19:32 32.836366 -114.642195 262 5803ft 213kts
04-May-19 19:34 32.828254 -114.725418 262 6749ft 218kts
04-May-19 19:34 32.822300 -114.785807 262 7425ft 224kts
04-May-19 19:35 32.814996 -114.859756 262 8230ft 226kts
04-May-19 19:36 32.807574 -114.934673 262 9039ft 228kts
04-May-19 19:37 32.800009 -115.009918 262 9843ft 229kts
04-May-19 19:38 32.793387 -115.075510 261 11924ft 185kts
04-May-19 19:39 32.787037 -115.137513 262 13360ft 189kts
04-May-19 19:40 32.780831 -115.198995 262 14890ft 189kts
04-May-19 19:41 32.774501 -115.261024 263 16337ft 189kts
04-May-19 19:42 32.768158 -115.323156 263 17703ft 190kts
04-May-19 19:43 32.761681 -115.385771 263 18930ft 191kts
04-May-19 19:44 32.755118 -115.448932 263 19999ft 193kts
04-May-19 19:45 32.749095 -115.512218 267 20919ft 194kts
04-May-19 19:46 32.749308 -115.576990 269 21712ft 197kts
04-May-19 19:47 32.749798 -115.646290 269 21761ft 219kts
04-May-19 19:48 32.750219 -115.713233 268 21766ft 229kts
04-May-19 19:49 32.750623 -115.790007 268 21591ft 226kts
04-May-19 19:50 32.750831 -115.858622 268 20756ft 193kts
04-May-19 19:51 32.751043 -115.919734 268 19934ft 177kts
04-May-19 19:52 32.751223 -115.981951 268 19178ft 200kts
04-May-19 19:53 32.751478 -116.050857 268 18397ft 214kts
04-May-19 19:54 32.751671 -116.122768 268 17600ft 218kts
04-May-19 19:55 32.751808 -116.194837 268 16802ft 219kts
04-May-19 19:56 32.751915 -116.267784 268 15996ft 221kts
04-May-19 19:57 32.747690 -116.341009 263 15191ft 222kts
04-May-19 19:58 32.742144 -116.412669 263 14129ft 207kts
04-May-19 19:59 32.737006 -116.478196 263 12509ft 195kts
04-May-19 20:00 32.731355 -116.541549 262 10639ft 185kts
04-May-19 20:01 32.725623 -116.599811 263 9008ft 172kts
04-May-19 20:02 32.720417 -116.653424 263 7960ft 148kts
04-May-19 20:03 32.716581 -116.701437 264 6694ft 182kts
04-May-19 20:04 32.711876 -116.762041 264 5951ft 167kts
04-May-19 20:05 32.707636 -116.812448 261 5964ft 151kts
04-May-19 20:06 32.692945 -116.865075 250 4968ft 171kts
04-May-19 20:07 32.676928 -116.917759 251 4442ft 168kts
04-May-19 20:08 32.680028 -116.971283 285 3586ft 162kts
04-May-19 20:09 32.692565 -117.021630 285 2802ft 157kts
04-May-19 20:10 32.704627 -117.070639 286 2070ft 155kts
04-May-19 20:11 32.715483 -117.115563 288 1230ft 121kts
04-May-19 20:12 32.724242 -117.151323 287 672ft 110kts
04-May-19 20:13 32.731939 -117.183090 289 21ft 89kts
04-May-19 20:14 32.734017 -117.188052 15 20ft 0kts
04-May-19 20:15 32.734201 -117.187866 66 21ft 7kts
04-May-19 20:16 32.732888 -117.182149 106 21ft 18kts
04-May-19 20:17 32.732201 -117.177455 101 21ft 0kts
04-May-19 20:18 32.732201 -117.177455 101 21ft 0kts
04-May-19 20:19 32.732201 -117.177455 101 21ft 0kts
04-May-19 20:20 32.732201 -117.177455 101 21ft 0kts
04-May-19 20:21 32.732201 -117.177455 101 21ft 0kts
04-May-19 20:22 32.732201 -117.177455 101 21ft 0kts
04-May-19 20:23 32.732201 -117.177455 101 21ft 0kts
04-May-19 20:24 32.732201 -117.177455 101 21ft 0kts
04-May-19 20:25 32.732201 -117.177455 101 21ft 0kts

Navigation Log

Ident Type
Flight plan parsing failed, navigation log unavailable